sensor_id;sensor_type;location;lat;lon;timestamp;pressure;altitude;pressure_sealevel;temperature;humidity
45327;BME280;31062;49.678;24.560;2023-11-21T00:01:21;97438.06;;;5.83;84.94
45327;BME280;31062;49.678;24.560;2023-11-21T00:04:08;97439.38;;;5.82;85.48
45327;BME280;31062;49.678;24.560;2023-11-21T00:06:55;97439.00;;;5.78;85.33
45327;BME280;31062;49.678;24.560;2023-11-21T00:09:41;97448.16;;;5.81;85.63
45327;BME280;31062;49.678;24.560;2023-11-21T00:12:27;97437.91;;;5.81;85.45
45327;BME280;31062;49.678;24.560;2023-11-21T00:15:14;97437.91;;;5.81;85.53
45327;BME280;31062;49.678;24.560;2023-11-21T00:18:00;97438.63;;;5.82;85.43
45327;BME280;31062;49.678;24.560;2023-11-21T00:20:47;97441.56;;;5.84;85.65
45327;BME280;31062;49.678;24.560;2023-11-21T00:23:33;97434.19;;;5.86;85.25
45327;BME280;31062;49.678;24.560;2023-11-21T00:26:18;97438.22;;;5.85;85.78
45327;BME280;31062;49.678;24.560;2023-11-21T00:29:16;97443.72;;;5.85;85.97
45327;BME280;31062;49.678;24.560;2023-11-21T00:32:03;97441.19;;;5.87;85.47
45327;BME280;31062;49.678;24.560;2023-11-21T00:34:50;97452.19;;;5.87;85.73
45327;BME280;31062;49.678;24.560;2023-11-21T00:37:37;97447.41;;;5.88;85.46
45327;BME280;31062;49.678;24.560;2023-11-21T00:40:24;97442.66;;;5.88;85.56
45327;BME280;31062;49.678;24.560;2023-11-21T00:43:10;97438.59;;;5.89;85.56
45327;BME280;31062;49.678;24.560;2023-11-21T00:45:57;97444.25;;;5.91;85.56
45327;BME280;31062;49.678;24.560;2023-11-21T00:48:42;97447.19;;;5.93;85.83
45327;BME280;31062;49.678;24.560;2023-11-21T00:51:28;97441.13;;;5.95;85.37
45327;BME280;31062;49.678;24.560;2023-11-21T00:54:14;97441.84;;;5.95;85.31
45327;BME280;31062;49.678;24.560;2023-11-21T00:57:02;97440.53;;;5.96;85.39
45327;BME280;31062;49.678;24.560;2023-11-21T00:59:48;97441.13;;;5.95;85.39
45327;BME280;31062;49.678;24.560;2023-11-21T01:02:36;97441.84;;;5.95;85.65
45327;BME280;31062;49.678;24.560;2023-11-21T01:05:22;97436.19;;;5.93;85.57
45327;BME280;31062;49.678;24.560;2023-11-21T01:08:08;97436.72;;;5.92;85.58
45327;BME280;31062;49.678;24.560;2023-11-21T01:10:55;97436.00;;;5.91;85.71
45327;BME280;31062;49.678;24.560;2023-11-21T01:13:42;97435.84;;;5.89;85.55
45327;BME280;31062;49.678;24.560;2023-11-21T01:16:28;97431.63;;;5.88;85.42
45327;BME280;31062;49.678;24.560;2023-11-21T01:19:14;97435.69;;;5.87;85.44
45327;BME280;31062;49.678;24.560;2023-11-21T01:22:01;97435.69;;;5.87;85.88
45327;BME280;31062;49.678;24.560;2023-11-21T01:24:47;97432.94;;;5.87;85.99
45327;BME280;31062;49.678;24.560;2023-11-21T01:27:35;97440.03;;;5.90;85.90
45327;BME280;31062;49.678;24.560;2023-11-21T01:30:21;97442.78;;;5.90;85.87
45327;BME280;31062;49.678;24.560;2023-11-21T01:33:07;97442.97;;;5.92;85.71
45327;BME280;31062;49.678;24.560;2023-11-21T01:35:54;97445.53;;;5.90;85.39
45327;BME280;31062;49.678;24.560;2023-11-21T01:38:40;97441.69;;;5.93;85.95
45327;BME280;31062;49.678;24.560;2023-11-21T01:41:27;97356.84;;;5.40;85.53
45327;BME280;31062;49.678;24.560;2023-11-21T01:44:14;97438.53;;;5.97;85.68
45327;BME280;31062;49.678;24.560;2023-11-21T01:46:59;97430.84;;;5.95;85.58
45327;BME280;31062;49.678;24.560;2023-11-21T01:49:50;97436.69;;;5.99;85.37
45327;BME280;31062;49.678;24.560;2023-11-21T01:52:36;97427.13;;;6.00;85.33
45327;BME280;31062;49.678;24.560;2023-11-21T01:55:23;97431.00;;;5.97;85.78
45327;BME280;31062;49.678;24.560;2023-11-21T01:58:13;97437.78;;;5.96;85.29
45327;BME280;31062;49.678;24.560;2023-11-21T02:00:59;97427.19;;;5.93;85.28
45327;BME280;31062;49.678;24.560;2023-11-21T02:03:47;97428.25;;;5.97;85.77
45327;BME280;31062;49.678;24.560;2023-11-21T02:06:33;97432.47;;;5.98;85.73
45327;BME280;31062;49.678;24.560;2023-11-21T02:09:25;97431.72;;;5.98;85.29
45327;BME280;31062;49.678;24.560;2023-11-21T02:12:11;97426.88;;;5.89;85.28
45327;BME280;31062;49.678;24.560;2023-11-21T02:14:58;97439.66;;;5.94;85.56
45327;BME280;31062;49.678;24.560;2023-11-21T02:17:43;97384.94;;;5.56;85.44
45327;BME280;31062;49.678;24.560;2023-11-21T02:20:29;97442.97;;;5.92;85.65
45327;BME280;31062;49.678;24.560;2023-11-21T02:23:15;97442.97;;;5.92;85.90
45327;BME280;31062;49.678;24.560;2023-11-21T02:26:01;97437.47;;;5.92;85.56
45327;BME280;31062;49.678;24.560;2023-11-21T02:28:49;97441.50;;;5.91;85.48
45327;BME280;31062;49.678;24.560;2023-11-21T02:31:37;97445.53;;;5.90;85.70
45327;BME280;31062;49.678;24.560;2023-11-21T02:34:31;97439.47;;;5.92;85.76
45327;BME280;31062;49.678;24.560;2023-11-21T02:37:17;97436.34;;;5.95;85.76
45327;BME280;31062;49.678;24.560;2023-11-21T02:40:03;97442.72;;;5.98;85.55
45327;BME280;31062;49.678;24.560;2023-11-21T02:42:52;97439.97;;;5.98;85.87
45327;BME280;31062;49.678;24.560;2023-11-21T02:45:39;97425.94;;;5.86;85.48
45327;BME280;31062;49.678;24.560;2023-11-21T02:48:26;97443.63;;;6.00;85.79
45327;BME280;31062;49.678;24.560;2023-11-21T02:51:12;97441.03;;;6.02;85.68
45327;BME280;31062;49.678;24.560;2023-11-21T02:53:58;97450.94;;;6.05;85.53
45327;BME280;31062;49.678;24.560;2023-11-21T02:56:44;97448.34;;;6.07;85.41
45327;BME280;31062;49.678;24.560;2023-11-21T02:59:31;97460.78;;;6.08;85.19
45327;BME280;31062;49.678;24.560;2023-11-21T03:02:16;97456.75;;;6.09;85.03
45327;BME280;31062;49.678;24.560;2023-11-21T03:05:02;97463.41;;;6.06;85.05
45327;BME280;31062;49.678;24.560;2023-11-21T03:07:50;97464.50;;;6.03;85.36
45327;BME280;31062;49.678;24.560;2023-11-21T03:10:38;97461.63;;;6.01;85.20
45327;BME280;31062;49.678;24.560;2023-11-21T03:13:23;97451.72;;;5.98;85.19
45327;BME280;31062;49.678;24.560;2023-11-21T03:16:10;97449.53;;;5.97;85.32
45327;BME280;31062;49.678;24.560;2023-11-21T03:18:56;97461.25;;;5.97;85.35
45327;BME280;31062;49.678;24.560;2023-11-21T03:21:42;97451.00;;;5.98;85.78
45327;BME280;31062;49.678;24.560;2023-11-21T03:24:28;97457.03;;;5.96;85.67
45327;BME280;31062;49.678;24.560;2023-11-21T03:27:14;97466.44;;;5.93;85.48
45327;BME280;31062;49.678;24.560;2023-11-21T03:30:01;97470.31;;;5.90;85.54
45327;BME280;31062;49.678;24.560;2023-11-21T03:32:49;97459.34;;;5.83;85.99
45327;BME280;31062;49.678;24.560;2023-11-21T03:35:35;97461.91;;;5.88;86.08
45327;BME280;31062;49.678;24.560;2023-11-21T03:38:22;97457.88;;;5.89;86.06
45327;BME280;31062;49.678;24.560;2023-11-21T03:41:08;97444.88;;;5.82;85.66
45327;BME280;31062;49.678;24.560;2023-11-21T03:44:18;97459.16;;;5.88;86.04
45327;BME280;31062;49.678;24.560;2023-11-21T03:47:03;97456.19;;;5.86;86.11
45327;BME280;31062;49.678;24.560;2023-11-21T03:49:50;97463.91;;;5.88;86.27
45327;BME280;31062;49.678;24.560;2023-11-21T03:52:35;97464.78;;;5.90;86.30
45327;BME280;31062;49.678;24.560;2023-11-21T03:55:21;97475.25;;;5.92;85.86
45327;BME280;31062;49.678;24.560;2023-11-21T03:58:08;97470.47;;;5.92;85.79
45327;BME280;31062;49.678;24.560;2023-11-21T04:00:54;97464.41;;;5.94;85.93
45327;BME280;31062;49.678;24.560;2023-11-21T04:03:40;97471.53;;;5.97;85.95
45327;BME280;31062;49.678;24.560;2023-11-21T04:06:26;97455.09;;;5.89;85.81
45327;BME280;31062;49.678;24.560;2023-11-21T04:09:13;97466.75;;;5.97;85.85
45327;BME280;31062;49.678;24.560;2023-11-21T04:12:00;97466.03;;;5.97;85.63
45327;BME280;31062;49.678;24.560;2023-11-21T04:14:45;97467.91;;;5.94;85.65
45327;BME280;31062;49.678;24.560;2023-11-21T04:17:31;97466.44;;;5.93;86.00
45327;BME280;31062;49.678;24.560;2023-11-21T04:20:17;97454.16;;;5.94;85.86
45327;BME280;31062;49.678;24.560;2023-11-21T04:23:03;97453.97;;;5.92;85.82
45327;BME280;31062;49.678;24.560;2023-11-21T04:25:49;97459.28;;;5.90;85.92
45327;BME280;31062;49.678;24.560;2023-11-21T04:28:56;97468.13;;;5.89;86.35
45327;BME280;31062;49.678;24.560;2023-11-21T04:31:41;97460.97;;;5.86;86.52
45327;BME280;31062;49.678;24.560;2023-11-21T04:34:27;97473.84;;;5.83;86.33
45327;BME280;31062;49.678;24.560;2023-11-21T04:37:13;97463.38;;;5.82;86.36
45327;BME280;31062;49.678;24.560;2023-11-21T04:39:59;97466.13;;;5.82;86.65
45327;BME280;31062;49.678;24.560;2023-11-21T04:42:45;97468.34;;;5.83;87.04
45327;BME280;31062;49.678;24.560;2023-11-21T04:45:32;97451.31;;;5.77;86.80
45327;BME280;31062;49.678;24.560;2023-11-21T04:48:18;97476.19;;;5.87;86.86
45327;BME280;31062;49.678;24.560;2023-11-21T04:51:05;97478.19;;;5.86;86.69
45327;BME280;31062;49.678;24.560;2023-11-21T04:53:51;97476.72;;;5.85;86.45
45327;BME280;31062;49.678;24.560;2023-11-21T04:56:37;97480.78;;;5.84;86.98
45327;BME280;31062;49.678;24.560;2023-11-21T04:59:24;97479.47;;;5.85;87.16
45327;BME280;31062;49.678;24.560;2023-11-21T05:02:10;97473.47;;;5.79;86.52
45327;BME280;31062;49.678;24.560;2023-11-21T05:05:17;97482.63;;;5.89;87.04
45327;BME280;31062;49.678;24.560;2023-11-21T05:08:03;97485.53;;;5.91;86.99
45327;BME280;31062;49.678;24.560;2023-11-21T05:10:51;97481.47;;;5.92;86.65
45327;BME280;31062;49.678;24.560;2023-11-21T05:13:37;97483.50;;;5.92;86.63
45327;BME280;31062;49.678;24.560;2023-11-21T05:16:26;97484.78;;;5.91;87.25
45327;BME280;31062;49.678;24.560;2023-11-21T05:19:13;97495.78;;;5.91;86.92
45327;BME280;31062;49.678;24.560;2023-11-21T05:21:59;97493.94;;;5.93;87.30
45327;BME280;31062;49.678;24.560;2023-11-21T05:24:46;97502.38;;;5.95;86.78
45327;BME280;31062;49.678;24.560;2023-11-21T05:27:32;97491.69;;;5.99;86.99
45327;BME280;31062;49.678;24.560;2023-11-21T05:30:17;97491.69;;;5.99;87.16
45327;BME280;31062;49.678;24.560;2023-11-21T05:33:03;97506.75;;;5.98;86.58
45327;BME280;31062;49.678;24.560;2023-11-21T05:35:49;97501.25;;;5.98;86.77
45327;BME280;31062;49.678;24.560;2023-11-21T05:38:36;97501.25;;;5.98;87.25
45327;BME280;31062;49.678;24.560;2023-11-21T05:41:21;97505.47;;;5.99;86.76
45327;BME280;31062;49.678;24.560;2023-11-21T05:44:07;97497.97;;;5.92;86.85
45327;BME280;31062;49.678;24.560;2023-11-21T05:46:53;97515.00;;;5.98;87.36
45327;BME280;31062;49.678;24.560;2023-11-21T05:49:39;97517.75;;;5.98;86.81
45327;BME280;31062;49.678;24.560;2023-11-21T05:52:25;97510.69;;;5.88;87.20
45327;BME280;31062;49.678;24.560;2023-11-21T05:55:11;97521.78;;;5.97;87.71
45327;BME280;31062;49.678;24.560;2023-11-21T05:57:57;97516.28;;;5.97;87.31
45327;BME280;31062;49.678;24.560;2023-11-21T06:00:43;97527.28;;;5.97;87.59
45327;BME280;31062;49.678;24.560;2023-11-21T06:03:29;97523.66;;;5.95;87.46
45327;BME280;31062;49.678;24.560;2023-11-21T06:06:35;97529.31;;;5.97;87.50
45327;BME280;31062;49.678;24.560;2023-11-21T06:09:21;97556.25;;;5.98;87.38
45327;BME280;31062;49.678;24.560;2023-11-21T06:12:28;97539.94;;;6.00;87.31
45327;BME280;31062;49.678;24.560;2023-11-21T06:15:15;97410.31;;;5.14;87.72
45327;BME280;31062;49.678;24.560;2023-11-21T06:18:20;97551.09;;;6.02;87.67
45327;BME280;31062;49.678;24.560;2023-11-21T06:21:26;97538.66;;;6.01;87.71
45327;BME280;31062;49.678;24.560;2023-11-21T06:24:32;97550.34;;;6.02;88.08
45327;BME280;31062;49.678;24.560;2023-11-21T06:27:48;97538.81;;;6.03;87.69
45327;BME280;31062;49.678;24.560;2023-11-21T06:30:54;97542.28;;;6.04;87.78
45327;BME280;31062;49.678;24.560;2023-11-21T06:33:41;97545.94;;;6.06;87.98
45327;BME280;31062;49.678;24.560;2023-11-21T06:36:27;97548.84;;;6.08;87.83
45327;BME280;31062;49.678;24.560;2023-11-21T06:39:30;97544.81;;;6.09;87.94
45327;BME280;31062;49.678;24.560;2023-11-21T06:42:15;97547.41;;;6.07;87.88
45327;BME280;31062;49.678;24.560;2023-11-21T06:45:02;97561.31;;;6.09;87.99
45327;BME280;31062;49.678;24.560;2023-11-21T06:47:51;97551.78;;;6.10;88.43
45327;BME280;31062;49.678;24.560;2023-11-21T06:50:57;97546.28;;;6.10;88.19
45327;BME280;31062;49.678;24.560;2023-11-21T06:54:03;97548.81;;;6.16;88.74
45327;BME280;31062;49.678;24.560;2023-11-21T06:57:09;97545.50;;;6.18;88.54
45327;BME280;31062;49.678;24.560;2023-11-21T06:59:55;97545.81;;;6.22;89.09
45327;BME280;31062;49.678;24.560;2023-11-21T07:02:43;97548.75;;;6.24;88.45
45327;BME280;31062;49.678;24.560;2023-11-21T07:05:29;97550.22;;;6.25;88.62
45327;BME280;31062;49.678;24.560;2023-11-21T07:08:15;97541.44;;;6.19;88.54
45327;BME280;31062;49.678;24.560;2023-11-21T07:11:01;97545.81;;;6.22;88.63
45327;BME280;31062;49.678;24.560;2023-11-21T07:13:48;97545.81;;;6.22;88.94
45327;BME280;31062;49.678;24.560;2023-11-21T07:16:37;97551.31;;;6.22;89.18
45327;BME280;31062;49.678;24.560;2023-11-21T07:19:23;97555.53;;;6.23;88.72
45327;BME280;31062;49.678;24.560;2023-11-21T07:22:09;97550.22;;;6.25;89.10
45327;BME280;31062;49.678;24.560;2023-11-21T07:24:55;97555.72;;;6.25;88.73
45327;BME280;31062;49.678;24.560;2023-11-21T07:27:43;97544.72;;;6.25;88.91
45327;BME280;31062;49.678;24.560;2023-11-21T07:30:28;97549.47;;;6.24;88.94
45327;BME280;31062;49.678;24.560;2023-11-21T07:33:14;97550.03;;;6.23;89.32
45327;BME280;31062;49.678;24.560;2023-11-21T07:36:21;97552.97;;;6.25;89.52
45327;BME280;31062;49.678;24.560;2023-11-21T07:39:23;97544.84;;;6.27;89.39
45327;BME280;31062;49.678;24.560;2023-11-21T07:42:29;97546.16;;;6.26;89.45
45327;BME280;31062;49.678;24.560;2023-11-21T07:45:34;97546.88;;;6.26;89.45
45327;BME280;31062;49.678;24.560;2023-11-21T07:48:41;97543.56;;;6.28;89.94
45327;BME280;31062;49.678;24.560;2023-11-21T07:51:50;97545.22;;;6.31;90.27
45327;BME280;31062;49.678;24.560;2023-11-21T07:54:56;97541.31;;;6.34;89.86
45327;BME280;31062;49.678;24.560;2023-11-21T07:58:01;97531.94;;;6.37;90.31
45327;BME280;31062;49.678;24.560;2023-11-21T08:00:50;97498.59;;;6.08;90.42
45327;BME280;31062;49.678;24.560;2023-11-21T08:03:35;97540.84;;;6.45;90.54
45327;BME280;31062;49.678;24.560;2023-11-21T08:06:21;97542.31;;;6.46;90.21
45327;BME280;31062;49.678;24.560;2023-11-21T08:09:27;97543.78;;;6.47;89.71
45327;BME280;31062;49.678;24.560;2023-11-21T08:12:34;97549.28;;;6.47;90.09
45327;BME280;31062;49.678;24.560;2023-11-21T08:15:27;97539.78;;;6.40;90.36
45327;BME280;31062;49.678;24.560;2023-11-21T08:18:33;97552.53;;;6.53;90.07
45327;BME280;31062;49.678;24.560;2023-11-21T08:21:39;97555.47;;;6.55;90.13
45327;BME280;31062;49.678;24.560;2023-11-21T08:24:45;97550.66;;;6.55;90.22
45327;BME280;31062;49.678;24.560;2023-11-21T08:27:51;97554.00;;;6.54;90.46
45327;BME280;31062;49.678;24.560;2023-11-21T08:30:58;97565.00;;;6.54;90.00
45327;BME280;31062;49.678;24.560;2023-11-21T08:34:05;97572.31;;;6.59;90.31
45327;BME280;31062;49.678;24.560;2023-11-21T08:37:14;97554.63;;;6.62;90.27
45327;BME280;31062;49.678;24.560;2023-11-21T08:40:21;97559.03;;;6.65;90.46
45327;BME280;31062;49.678;24.560;2023-11-21T08:43:26;97558.28;;;6.65;90.18
45327;BME280;31062;49.678;24.560;2023-11-21T08:46:32;97553.53;;;6.65;90.25
45327;BME280;31062;49.678;24.560;2023-11-21T08:49:38;97557.75;;;6.66;90.25
45327;BME280;31062;49.678;24.560;2023-11-21T08:52:44;97561.94;;;6.67;90.51
45327;BME280;31062;49.678;24.560;2023-11-21T08:55:50;97564.84;;;6.69;91.02
45327;BME280;31062;49.678;24.560;2023-11-21T08:58:56;97558.22;;;6.72;91.06
45327;BME280;31062;49.678;24.560;2023-11-21T09:02:02;97571.41;;;6.74;90.57
45327;BME280;31062;49.678;24.560;2023-11-21T09:05:08;97566.97;;;6.78;91.22
45327;BME280;31062;49.678;24.560;2023-11-21T09:08:15;97571.91;;;6.80;90.92
45327;BME280;31062;49.678;24.560;2023-11-21T09:11:21;97565.53;;;6.77;90.26
45327;BME280;31062;49.678;24.560;2023-11-21T09:14:27;97563.09;;;6.81;90.68
45327;BME280;31062;49.678;24.560;2023-11-21T09:17:33;97568.03;;;6.83;90.80
45327;BME280;31062;49.678;24.560;2023-11-21T09:20:39;97562.13;;;6.86;90.98
45327;BME280;31062;49.678;24.560;2023-11-21T09:23:45;97561.72;;;6.90;90.92
45327;BME280;31062;49.678;24.560;2023-11-21T09:26:51;97558.38;;;6.91;90.74
45327;BME280;31062;49.678;24.560;2023-11-21T09:29:56;97538.69;;;6.78;90.79
45327;BME280;31062;49.678;24.560;2023-11-21T09:33:03;97564.22;;;6.95;91.28
45327;BME280;31062;49.678;24.560;2023-11-21T09:36:12;97554.69;;;6.96;90.87
45327;BME280;31062;49.678;24.560;2023-11-21T09:39:18;97556.13;;;6.97;91.42
45327;BME280;31062;49.678;24.560;2023-11-21T09:42:32;97546.72;;;7.01;90.96
45327;BME280;31062;49.678;24.560;2023-11-21T09:45:47;97544.84;;;7.03;91.36
45327;BME280;31062;49.678;24.560;2023-11-21T09:48:54;97394.75;;;6.08;91.27
45327;BME280;31062;49.678;24.560;2023-11-21T09:52:01;97543.16;;;7.08;91.11
45327;BME280;31062;49.678;24.560;2023-11-21T09:55:07;97540.53;;;7.10;91.38
45327;BME280;31062;49.678;24.560;2023-11-21T09:58:14;97539.41;;;7.13;91.66
45327;BME280;31062;49.678;24.560;2023-11-21T10:01:21;97473.41;;;6.71;91.87
45327;BME280;31062;49.678;24.560;2023-11-21T10:04:27;97535.50;;;7.16;91.69
45327;BME280;31062;49.678;24.560;2023-11-21T10:07:34;97539.16;;;7.18;92.16
45327;BME280;31062;49.678;24.560;2023-11-21T10:10:43;97541.19;;;7.18;92.27
45327;BME280;31062;49.678;24.560;2023-11-21T10:13:58;97541.84;;;7.26;92.36
45327;BME280;31062;49.678;24.560;2023-11-21T10:17:12;97542.16;;;7.30;91.89
45327;BME280;31062;49.678;24.560;2023-11-21T10:20:20;97537.38;;;7.30;91.57
45327;BME280;31062;49.678;24.560;2023-11-21T10:23:27;97536.31;;;7.26;91.03
45327;BME280;31062;49.678;24.560;2023-11-21T10:26:33;97531.63;;;7.19;91.65
45327;BME280;31062;49.678;24.560;2023-11-21T10:29:40;97498.25;;;6.97;91.28
45327;BME280;31062;49.678;24.560;2023-11-21T10:32:46;97541.91;;;7.35;91.28
45327;BME280;31062;49.678;24.560;2023-11-21T10:35:52;97548.13;;;7.36;91.66
45327;BME280;31062;49.678;24.560;2023-11-21T10:38:59;97540.19;;;7.40;91.37
45327;BME280;31062;49.678;24.560;2023-11-21T10:42:08;97515.25;;;7.21;91.06
45327;BME280;31062;49.678;24.560;2023-11-21T10:45:13;97541.94;;;7.45;91.07
45327;BME280;31062;49.678;24.560;2023-11-21T10:48:20;97496.06;;;7.13;90.84
45327;BME280;31062;49.678;24.560;2023-11-21T10:51:26;97547.38;;;7.53;91.53
45327;BME280;31062;49.678;24.560;2023-11-21T10:54:31;97534.47;;;7.55;91.39
45327;BME280;31062;49.678;24.560;2023-11-21T10:57:37;97528.31;;;7.47;91.19
45327;BME280;31062;49.678;24.560;2023-11-21T11:00:44;97521.56;;;7.58;91.29
45327;BME280;31062;49.678;24.560;2023-11-21T11:03:52;97516.31;;;7.52;91.59
45327;BME280;31062;49.678;24.560;2023-11-21T11:07:01;97527.25;;;7.60;91.51
45327;BME280;31062;49.678;24.560;2023-11-21T11:10:09;97516.78;;;7.58;91.42
45327;BME280;31062;49.678;24.560;2023-11-21T11:13:15;97524.38;;;7.67;91.51
45327;BME280;31062;49.678;24.560;2023-11-21T11:16:21;97528.75;;;7.70;91.49
45327;BME280;31062;49.678;24.560;2023-11-21T11:19:28;97524.69;;;7.71;91.38
45327;BME280;31062;49.678;24.560;2023-11-21T11:23:24;97540.09;;;7.74;91.25
45327;BME280;31062;49.678;24.560;2023-11-21T11:26:15;97524.97;;;7.75;91.36
45327;BME280;31062;49.678;24.560;2023-11-21T11:33:06;97537.66;;;7.78;91.49
45327;BME280;31062;49.678;24.560;2023-11-21T11:39:42;97538.94;;;7.77;92.08
45327;BME280;31062;49.678;24.560;2023-11-21T11:42:58;97529.06;;;7.74;91.56
45327;BME280;31062;49.678;24.560;2023-11-21T11:46:06;97535.03;;;7.80;91.71
45327;BME280;31062;49.678;24.560;2023-11-21T11:49:28;97525.88;;;7.78;91.82
45327;BME280;31062;49.678;24.560;2023-11-21T11:52:41;97532.13;;;7.78;91.53
45327;BME280;31062;49.678;24.560;2023-11-21T11:55:58;97532.25;;;7.80;92.16
45327;BME280;31062;49.678;24.560;2023-11-21T11:59:23;97523.84;;;7.78;91.90
45327;BME280;31062;49.678;24.560;2023-11-21T12:02:29;97531.13;;;7.84;92.15
45327;BME280;31062;49.678;24.560;2023-11-21T12:05:36;97532.91;;;7.89;91.91
45327;BME280;31062;49.678;24.560;2023-11-21T12:08:43;97534.66;;;7.94;92.24
45327;BME280;31062;49.678;24.560;2023-11-21T12:11:49;97524.91;;;7.93;92.25
45327;BME280;31062;49.678;24.560;2023-11-21T12:14:55;97529.28;;;7.96;92.27
45327;BME280;31062;49.678;24.560;2023-11-21T12:17:41;97525.38;;;7.99;91.92
45327;BME280;31062;49.678;24.560;2023-11-21T12:20:30;97521.31;;;8.00;91.72
45327;BME280;31062;49.678;24.560;2023-11-21T12:23:16;97524.25;;;8.02;91.67
45327;BME280;31062;49.678;24.560;2023-11-21T12:26:02;97524.97;;;8.02;91.59
45327;BME280;31062;49.678;24.560;2023-11-21T12:28:52;97529.75;;;8.02;91.20
45327;BME280;31062;49.678;24.560;2023-11-21T12:31:42;97524.25;;;8.02;91.41
45327;BME280;31062;49.678;24.560;2023-11-21T12:34:28;97526.84;;;8.00;91.03
45327;BME280;31062;49.678;24.560;2023-11-21T12:37:13;97533.81;;;8.01;91.58
45327;BME280;31062;49.678;24.560;2023-11-21T12:39:59;97532.34;;;8.00;91.60
45327;BME280;31062;49.678;24.560;2023-11-21T12:42:46;97525.69;;;8.03;91.55
45327;BME280;31062;49.678;24.560;2023-11-21T12:45:33;97520.31;;;8.05;91.37
45327;BME280;31062;49.678;24.560;2023-11-21T12:48:20;97531.50;;;8.07;91.56
45327;BME280;31062;49.678;24.560;2023-11-21T12:51:12;97529.06;;;8.11;91.09
45327;BME280;31062;49.678;24.560;2023-11-21T12:54:25;97519.34;;;8.10;91.22
45327;BME280;31062;49.678;24.560;2023-11-21T12:57:12;97525.84;;;8.05;90.90
45327;BME280;31062;49.678;24.560;2023-11-21T13:00:18;97533.38;;;8.04;90.90
45327;BME280;31062;49.678;24.560;2023-11-21T13:03:34;97529.31;;;8.05;91.42
45327;BME280;31062;49.678;24.560;2023-11-21T13:06:39;97528.19;;;8.08;91.67
45327;BME280;31062;49.678;24.560;2023-11-21T13:09:45;97535.31;;;8.11;91.45
45327;BME280;31062;49.678;24.560;2023-11-21T13:12:52;97529.50;;;8.17;91.37
45327;BME280;31062;49.678;24.560;2023-11-21T13:16:02;97527.63;;;8.19;91.67
45327;BME280;31062;49.678;24.560;2023-11-21T13:19:12;97512.34;;;8.09;91.16
45327;BME280;31062;49.678;24.560;2023-11-21T13:22:18;97531.28;;;8.22;91.22
45327;BME280;31062;49.678;24.560;2023-11-21T13:25:24;97482.50;;;7.88;90.83
45327;BME280;31062;49.678;24.560;2023-11-21T13:28:39;97534.66;;;8.30;90.99
45327;BME280;31062;49.678;24.560;2023-11-21T13:31:44;97543.13;;;8.32;90.70
45327;BME280;31062;49.678;24.560;2023-11-21T13:34:50;97540.47;;;8.34;90.57
45327;BME280;31062;49.678;24.560;2023-11-21T13:37:57;97513.94;;;8.12;90.92
45327;BME280;31062;49.678;24.560;2023-11-21T13:41:03;97547.63;;;8.37;90.55
45327;BME280;31062;49.678;24.560;2023-11-21T13:44:08;97543.69;;;8.40;90.59
45327;BME280;31062;49.678;24.560;2023-11-21T13:47:03;97558.97;;;8.41;90.43
45327;BME280;31062;49.678;24.560;2023-11-21T13:50:09;97558.97;;;8.41;90.40
45327;BME280;31062;49.678;24.560;2023-11-21T13:53:14;97556.81;;;8.40;90.46
45327;BME280;31062;49.678;24.560;2023-11-21T13:56:29;97553.16;;;8.37;90.55
45327;BME280;31062;49.678;24.560;2023-11-21T13:59:35;97565.34;;;8.34;90.24
45327;BME280;31062;49.678;24.560;2023-11-21T14:02:40;97560.66;;;8.27;90.15
45327;BME280;31062;49.678;24.560;2023-11-21T14:05:46;97565.84;;;8.23;90.39
45327;BME280;31062;49.678;24.560;2023-11-21T14:08:36;97561.19;;;8.16;90.34
45327;BME280;31062;49.678;24.560;2023-11-21T14:11:22;97570.47;;;8.11;90.58
45327;BME280;31062;49.678;24.560;2023-11-21T14:14:12;97567.25;;;8.05;90.82
45327;BME280;31062;49.678;24.560;2023-11-21T14:16:58;97573.91;;;8.02;90.91
45327;BME280;31062;49.678;24.560;2023-11-21T14:19:52;97574.66;;;8.02;91.59
45327;BME280;31062;49.678;24.560;2023-11-21T14:22:40;97576.97;;;8.06;91.48
45327;BME280;31062;49.678;24.560;2023-11-21T14:25:26;97573.09;;;8.09;91.65
45327;BME280;31062;49.678;24.560;2023-11-21T14:28:12;97579.34;;;8.09;91.40
45327;BME280;31062;49.678;24.560;2023-11-21T14:30:58;97577.31;;;8.10;90.96
45327;BME280;31062;49.678;24.560;2023-11-21T14:34:04;97575.97;;;8.11;91.34
45327;BME280;31062;49.678;24.560;2023-11-21T14:37:09;97566.41;;;8.12;90.99
45327;BME280;31062;49.678;24.560;2023-11-21T14:40:15;97564.81;;;8.09;91.20
45327;BME280;31062;49.678;24.560;2023-11-21T14:43:21;97577.44;;;8.12;90.98
45327;BME280;31062;49.678;24.560;2023-11-21T14:46:28;97575.97;;;8.11;91.17
45327;BME280;31062;49.678;24.560;2023-11-21T14:49:33;97580.78;;;8.10;90.90
45327;BME280;31062;49.678;24.560;2023-11-21T14:52:39;97580.06;;;8.10;90.89
45327;BME280;31062;49.678;24.560;2023-11-21T14:55:45;97584.13;;;8.09;91.21
45327;BME280;31062;49.678;24.560;2023-11-21T14:58:37;97584.13;;;8.09;90.90
45327;BME280;31062;49.678;24.560;2023-11-21T15:01:42;97582.66;;;8.08;90.85
45327;BME280;31062;49.678;24.560;2023-11-21T15:04:29;97585.25;;;8.06;90.69
45327;BME280;31062;49.678;24.560;2023-11-21T15:07:39;97588.50;;;8.12;90.66
45327;BME280;31062;49.678;24.560;2023-11-21T15:10:45;97577.97;;;8.01;90.33
45327;BME280;31062;49.678;24.560;2023-11-21T15:13:50;97601.69;;;8.04;90.39
45327;BME280;31062;49.678;24.560;2023-11-21T15:16:57;97596.72;;;8.02;90.91
45327;BME280;31062;49.678;24.560;2023-11-21T15:19:45;97587.72;;;8.02;90.16
45327;BME280;31062;49.678;24.560;2023-11-21T15:22:31;97587.72;;;8.02;90.59
45327;BME280;31062;49.678;24.560;2023-11-21T15:25:16;97589.03;;;8.01;90.64
45327;BME280;31062;49.678;24.560;2023-11-21T15:28:03;97580.16;;;8.02;90.22
45327;BME280;31062;49.678;24.560;2023-11-21T15:31:09;97581.03;;;8.05;90.58
45327;BME280;31062;49.678;24.560;2023-11-21T15:34:15;97594.84;;;8.05;89.87
45327;BME280;31062;49.678;24.560;2023-11-21T15:37:21;97447.69;;;7.03;89.78